Time;durP1;ratioP1;P1;durP2;ratioP2;P2;SDS_P1;SDS_P2;PMS_P1;PMS_P2;Temp;Humidity;BMP_temperature;BMP_pressure;BME280_temperature;BME280_humidity;BME280_pressure;Samples;Min_cycle;Max_cycle;Signal;HPM_P1;HPM_P2
2021/12/06 00:02:03;;;;;;;2.92;2.83;;;2.10;99.90;;;;;;5045638;28;20250;-76
2021/12/06 00:04:32;;;;;;;2.80;2.70;;;2.10;99.90;;;;;;5040653;28;20743;-78
2021/12/06 00:07:03;;;;;;;2.90;2.80;;;2.00;99.90;;;;;;5043800;28;20440;-75
2021/12/06 00:09:33;;;;;;;3.30;3.20;;;2.00;99.90;;;;;;5030330;28;20225;-78
2021/12/06 00:12:04;;;;;;;2.75;2.65;;;2.00;99.90;;;;;;5039036;28;20226;-76
2021/12/06 00:14:34;;;;;;;2.67;2.58;;;1.90;99.90;;;;;;5011544;28;20689;-78
2021/12/06 00:17:03;;;;;;;3.50;3.30;;;1.90;99.90;;;;;;5041875;28;20223;-75
2021/12/06 00:19:31;;;;;;;3.03;2.92;;;1.90;99.90;;;;;;5042350;28;20223;-75
2021/12/06 00:22:01;;;;;;;3.10;3.00;;;1.90;99.90;;;;;;5034311;28;20258;-74
2021/12/06 00:24:29;;;;;;;2.83;2.72;;;1.90;99.90;;;;;;5044233;28;20222;-77
2021/12/06 00:26:57;;;;;;;3.20;3.00;;;1.90;99.90;;;;;;5041298;28;20701;-76
2021/12/06 00:29:24;;;;;;;2.85;2.70;;;1.90;99.90;;;;;;5031388;28;20229;-74
2021/12/06 00:31:52;;;;;;;2.85;2.75;;;1.90;99.90;;;;;;5041355;28;20234;-76
2021/12/06 00:34:21;;;;;;;2.97;2.88;;;1.90;99.90;;;;;;5031634;28;20599;-72
2021/12/06 00:36:54;;;;;;;2.95;2.78;;;1.80;99.90;;;;;;5038907;28;20588;-77
2021/12/06 00:39:23;;;;;;;2.95;2.85;;;1.80;99.90;;;;;;5030534;28;20790;-74
2021/12/06 00:41:53;;;;;;;2.97;2.88;;;1.80;99.90;;;;;;5042275;28;20232;-76
2021/12/06 00:44:22;;;;;;;2.80;2.70;;;1.70;99.90;;;;;;5042340;28;20510;-75
2021/12/06 00:46:49;;;;;;;2.72;2.60;;;1.70;99.90;;;;;;5008170;28;20647;-74
2021/12/06 00:49:16;;;;;;;2.47;2.38;;;1.70;99.90;;;;;;5069738;22;20217;-73
2021/12/06 00:51:43;;;;;;;2.42;2.33;;;1.60;99.90;;;;;;5081817;28;20672;-71
2021/12/06 00:54:11;;;;;;;2.78;2.67;;;1.60;99.90;;;;;;5084098;28;20588;-71
2021/12/06 00:56:39;;;;;;;2.47;2.38;;;1.60;99.90;;;;;;5082723;27;20221;-71
2021/12/06 00:59:06;;;;;;;2.95;2.85;;;1.60;99.90;;;;;;5085528;27;20241;-71
2021/12/06 01:01:35;;;;;;;2.88;2.78;;;1.70;99.90;;;;;;5082383;28;20236;-72
2021/12/06 01:04:03;;;;;;;3.05;2.95;;;1.70;99.90;;;;;;5080998;27;20312;-74
2021/12/06 01:06:31;;;;;;;3.08;2.97;;;1.70;99.90;;;;;;5082057;28;20777;-72
2021/12/06 01:08:58;;;;;;;2.67;2.58;;;1.70;99.90;;;;;;5087104;27;20639;-72
2021/12/06 01:11:25;;;;;;;2.92;2.83;;;1.70;99.90;;;;;;5083341;27;20221;-74
2021/12/06 01:13:52;;;;;;;2.88;2.78;;;1.60;99.90;;;;;;5078390;28;20234;-73
2021/12/06 01:16:19;;;;;;;2.83;2.72;;;1.60;99.90;;;;;;5087848;28;20225;-74
2021/12/06 01:18:48;;;;;;;2.55;2.45;;;1.60;99.90;;;;;;5087696;28;20244;-71
2021/12/06 01:21:20;;;;;;;3.20;3.10;;;1.50;99.90;;;;;;5079332;28;20225;-71
2021/12/06 01:23:54;;;;;;;2.92;2.83;;;1.40;99.90;;;;;;5083657;28;20267;-72
2021/12/06 01:26:44;;;;;;;2.90;2.80;;;1.40;99.90;;;;;;5086081;27;20217;-72
2021/12/06 01:29:43;;;;;;;3.05;2.95;;;1.40;99.90;;;;;;5077584;28;20226;-72
2021/12/06 01:32:19;;;;;;;3.20;3.10;;;1.30;99.90;;;;;;5080347;28;20675;-72
2021/12/06 01:40:20;;;;;;;2.90;2.80;;;1.40;99.90;;;;;;5078408;27;20262;-72
2021/12/06 01:42:48;;;;;;;3.00;2.90;;;1.50;99.90;;;;;;5082429;27;20220;-73
2021/12/06 01:45:15;;;;;;;2.80;2.70;;;1.50;99.90;;;;;;5077890;27;20800;-73
2021/12/06 01:47:42;;;;;;;2.70;2.60;;;1.50;99.90;;;;;;5082366;28;20224;-72
2021/12/06 01:50:14;;;;;;;3.20;3.10;;;1.50;99.90;;;;;;5085070;28;20220;-72
2021/12/06 01:52:44;;;;;;;2.72;2.63;;;1.50;99.90;;;;;;5082837;28;20236;-72
2021/12/06 01:55:14;;;;;;;2.55;2.45;;;1.50;99.90;;;;;;5080239;27;20236;-72
2021/12/06 01:57:41;;;;;;;2.83;2.72;;;1.50;99.90;;;;;;5084368;28;20232;-72
2021/12/06 02:00:11;;;;;;;2.92;2.83;;;1.50;99.90;;;;;;5077679;27;20235;-73
2021/12/06 02:02:38;;;;;;;2.78;2.67;;;1.50;99.90;;;;;;5085511;28;20221;-73
2021/12/06 02:05:06;;;;;;;3.00;2.90;;;1.50;99.90;;;;;;5083408;28;20217;-73
2021/12/06 02:07:35;;;;;;;2.83;2.72;;;1.50;99.90;;;;;;5080433;28;20229;-72
2021/12/06 02:10:04;;;;;;;3.30;3.20;;;1.50;99.90;;;;;;5088504;28;20240;-73
2021/12/06 02:12:31;;;;;;;3.03;2.92;;;1.50;99.90;;;;;;5085294;28;20300;-75
2021/12/06 02:15:04;;;;;;;2.50;2.40;;;1.50;99.90;;;;;;5077337;28;20237;-72
2021/12/06 02:17:36;;;;;;;2.70;2.60;;;1.50;99.90;;;;;;5082434;28;20217;-74
2021/12/06 02:20:07;;;;;;;3.53;3.40;;;1.60;99.90;;;;;;5081524;28;20234;-73
2021/12/06 02:22:39;;;;;;;2.88;2.78;;;1.60;99.90;;;;;;5080040;28;20213;-72
2021/12/06 02:25:12;;;;;;;2.72;2.63;;;1.50;99.90;;;;;;5080501;28;20236;-72
2021/12/06 02:27:39;;;;;;;2.92;2.83;;;1.50;99.90;;;;;;5083718;28;20216;-72
2021/12/06 02:30:08;;;;;;;2.95;2.85;;;1.50;99.90;;;;;;5083298;28;20710;-73
2021/12/06 02:32:36;;;;;;;2.92;2.75;;;1.50;99.90;;;;;;5083734;28;20214;-72
2021/12/06 02:35:05;;;;;;;3.20;3.10;;;1.50;99.90;;;;;;5082166;28;20240;-73
2021/12/06 02:37:35;;;;;;;3.10;3.00;;;1.50;99.90;;;;;;5078437;28;20222;-74
2021/12/06 02:40:05;;;;;;;2.97;2.88;;;1.50;99.90;;;;;;5081974;27;20237;-72
2021/12/06 02:42:32;;;;;;;3.10;3.00;;;1.50;99.90;;;;;;5078070;28;20218;-72
2021/12/06 02:45:00;;;;;;;2.63;2.53;;;1.50;99.90;;;;;;5080805;28;20225;-72
2021/12/06 02:47:27;;;;;;;2.65;2.55;;;1.50;99.90;;;;;;5075675;28;20230;-72
2021/12/06 02:49:54;;;;;;;3.40;3.20;;;1.50;99.90;;;;;;5075451;27;20311;-73
2021/12/06 02:52:21;;;;;;;2.80;2.70;;;1.50;99.90;;;;;;5077432;28;20233;-72
2021/12/06 02:54:56;;;;;;;3.13;3.03;;;1.50;99.90;;;;;;5082410;28;20228;-73
2021/12/06 02:57:33;;;;;;;2.47;2.38;;;1.50;99.90;;;;;;5079806;27;20217;-71
2021/12/06 03:00:00;;;;;;;2.90;2.80;;;1.40;99.90;;;;;;5087310;27;20302;-72
2021/12/06 03:02:30;;;;;;;3.03;2.92;;;1.50;99.90;;;;;;5086845;28;20232;-72
2021/12/06 03:04:58;;;;;;;3.00;2.90;;;1.50;99.90;;;;;;5098381;27;20229;-75
2021/12/06 03:07:28;;;;;;;3.40;3.20;;;1.40;99.90;;;;;;5079785;27;20271;-72
2021/12/06 03:09:57;;;;;;;3.00;2.90;;;1.40;99.90;;;;;;5083373;28;20232;-73
2021/12/06 03:12:27;;;;;;;2.85;2.75;;;1.40;99.90;;;;;;5079473;28;20285;-72
2021/12/06 03:14:57;;;;;;;3.25;3.15;;;1.30;99.90;;;;;;5084958;28;20726;-72
2021/12/06 03:17:27;;;;;;;2.72;2.63;;;1.20;99.90;;;;;;5083708;27;20228;-72
2021/12/06 03:19:54;;;;;;;3.45;3.30;;;1.10;99.90;;;;;;5083841;27;20233;-72
2021/12/06 03:22:22;;;;;;;3.55;3.30;;;1.10;99.90;;;;;;5081358;28;20722;-72
2021/12/06 03:24:49;;;;;;;2.97;2.88;;;1.10;99.90;;;;;;5081160;27;20316;-73
2021/12/06 03:27:18;;;;;;;2.65;2.55;;;1.00;99.90;;;;;;5079921;27;20612;-73
2021/12/06 03:29:46;;;;;;;2.90;2.70;;;1.00;99.90;;;;;;5084173;28;20222;-72
2021/12/06 03:32:14;;;;;;;3.13;3.03;;;1.00;99.90;;;;;;5083174;28;20687;-73
2021/12/06 03:34:42;;;;;;;3.13;2.97;;;1.00;99.90;;;;;;5082022;28;20244;-72
2021/12/06 03:37:09;;;;;;;2.80;2.70;;;1.00;99.90;;;;;;5083318;27;20231;-75
2021/12/06 03:39:39;;;;;;;3.10;3.00;;;1.00;99.90;;;;;;5083612;28;20240;-73
2021/12/06 03:42:08;;;;;;;3.00;2.90;;;1.00;99.90;;;;;;5081995;27;20231;-72
2021/12/06 03:44:38;;;;;;;2.65;2.55;;;1.10;99.90;;;;;;5084645;27;20225;-74
2021/12/06 03:47:08;;;;;;;2.75;2.65;;;1.10;99.90;;;;;;5089903;27;20229;-73
2021/12/06 03:49:36;;;;;;;3.03;2.92;;;1.20;99.90;;;;;;5089843;28;20236;-72
2021/12/06 03:52:04;;;;;;;3.20;3.00;;;1.20;99.90;;;;;;5081885;28;20236;-73
2021/12/06 03:54:32;;;;;;;3.08;2.97;;;1.20;99.90;;;;;;5081182;28;20233;-74
2021/12/06 03:57:00;;;;;;;3.45;3.25;;;1.20;99.90;;;;;;5083840;27;20742;-73
2021/12/06 03:59:27;;;;;;;2.83;2.72;;;1.10;99.90;;;;;;5091795;28;20229;-73
2021/12/06 04:01:56;;;;;;;2.92;2.83;;;1.10;99.90;;;;;;5086309;28;20231;-73
2021/12/06 04:04:23;;;;;;;2.90;2.80;;;1.10;99.90;;;;;;5084559;27;20331;-73
2021/12/06 04:06:50;;;;;;;2.90;2.80;;;1.10;99.90;;;;;;5089867;28;20235;-73
2021/12/06 04:09:18;;;;;;;2.90;2.80;;;1.10;99.90;;;;;;5085092;28;20222;-73
2021/12/06 04:11:46;;;;;;;3.22;3.03;;;1.10;99.90;;;;;;5086498;27;20229;-73
2021/12/06 04:14:14;;;;;;;3.13;3.03;;;1.10;99.90;;;;;;5080743;27;20221;-74
2021/12/06 04:16:42;;;;;;;3.08;2.97;;;1.10;99.90;;;;;;5084865;28;20229;-73
2021/12/06 04:19:12;;;;;;;3.20;3.10;;;1.10;99.90;;;;;;5093499;28;20230;-74
2021/12/06 04:21:40;;;;;;;3.10;3.00;;;1.20;99.90;;;;;;5089179;28;20216;-73
2021/12/06 04:24:09;;;;;;;3.05;2.95;;;1.20;99.90;;;;;;5082446;27;20903;-73
2021/12/06 04:26:36;;;;;;;2.65;2.55;;;1.20;99.90;;;;;;5087646;27;20239;-73
2021/12/06 04:29:03;;;;;;;3.00;2.90;;;1.20;99.90;;;;;;5081430;27;20225;-73
2021/12/06 04:31:34;;;;;;;2.88;2.78;;;1.10;99.90;;;;;;5087337;28;20233;-74
2021/12/06 04:34:02;;;;;;;3.15;3.05;;;1.10;99.90;;;;;;5081952;27;20699;-73
2021/12/06 04:36:30;;;;;;;2.90;2.80;;;1.10;99.90;;;;;;5084900;27;20228;-75
2021/12/06 04:38:57;;;;;;;2.97;2.88;;;1.10;99.90;;;;;;5085277;28;20229;-74
2021/12/06 04:41:25;;;;;;;2.88;2.78;;;1.10;99.90;;;;;;5088093;27;20223;-73
2021/12/06 04:43:52;;;;;;;3.13;3.03;;;1.10;99.90;;;;;;5077265;27;20225;-74
2021/12/06 04:46:20;;;;;;;2.95;2.85;;;1.10;99.90;;;;;;5083655;27;20221;-74
2021/12/06 04:48:47;;;;;;;3.22;3.10;;;1.00;99.90;;;;;;5085337;28;20220;-73
2021/12/06 04:51:14;;;;;;;2.53;2.42;;;1.00;99.90;;;;;;5084735;28;20734;-74
2021/12/06 04:53:43;;;;;;;2.90;2.80;;;1.00;99.90;;;;;;5088862;28;20248;-75
2021/12/06 04:56:19;;;;;;;2.83;2.72;;;1.00;99.90;;;;;;5083308;28;20241;-74
2021/12/06 04:58:51;;;;;;;3.40;3.30;;;1.00;99.90;;;;;;5077266;28;20233;-74
2021/12/06 05:01:24;;;;;;;3.20;3.10;;;1.00;99.90;;;;;;5081588;27;20676;-74
2021/12/06 05:03:51;;;;;;;2.90;2.80;;;1.00;99.90;;;;;;5079715;28;20746;-74
2021/12/06 05:06:23;;;;;;;3.10;3.00;;;1.00;99.90;;;;;;5085198;28;20313;-74
2021/12/06 05:08:55;;;;;;;3.10;3.00;;;1.00;99.90;;;;;;5073282;28;20225;-73
2021/12/06 05:11:24;;;;;;;3.05;2.95;;;1.00;99.90;;;;;;5088025;28;20224;-74
2021/12/06 05:13:54;;;;;;;2.85;2.75;;;1.00;99.90;;;;;;5083952;28;20237;-74
2021/12/06 05:16:22;;;;;;;3.40;3.30;;;1.00;99.90;;;;;;5080428;28;20291;-74
2021/12/06 05:18:49;;;;;;;2.92;2.80;;;1.00;99.90;;;;;;5081076;28;20968;-73
2021/12/06 05:21:17;;;;;;;3.00;2.90;;;0.90;99.90;;;;;;5081833;27;20225;-74
2021/12/06 05:23:44;;;;;;;3.10;2.97;;;0.90;99.90;;;;;;5081637;28;20245;-74
2021/12/06 05:26:13;;;;;;;2.55;2.45;;;0.90;99.90;;;;;;5076839;28;20233;-74
2021/12/06 05:28:43;;;;;;;2.88;2.78;;;0.90;99.90;;;;;;5076157;28;20275;-74
2021/12/06 05:31:15;;;;;;;3.40;3.30;;;0.90;99.90;;;;;;5084597;28;20312;-75
2021/12/06 05:33:44;;;;;;;3.40;3.30;;;0.90;99.90;;;;;;5076530;28;20222;-74
2021/12/06 05:36:11;;;;;;;3.88;3.67;;;0.80;99.90;;;;;;5083882;27;20737;-73
2021/12/06 05:38:38;;;;;;;3.42;3.22;;;0.80;99.90;;;;;;5084389;28;20236;-73
2021/12/06 05:41:06;;;;;;;3.90;3.70;;;0.80;99.90;;;;;;5082660;28;20613;-75
2021/12/06 05:43:35;;;;;;;3.95;3.75;;;0.90;99.90;;;;;;5082642;28;20233;-74
2021/12/06 05:46:03;;;;;;;4.00;3.80;;;0.90;99.90;;;;;;5083544;28;20233;-74
2021/12/06 05:48:30;;;;;;;3.72;3.42;;;0.80;99.90;;;;;;5092865;28;20822;-74
2021/12/06 05:50:57;;;;;;;3.28;3.17;;;0.80;99.90;;;;;;5085917;27;20221;-74
2021/12/06 05:53:24;;;;;;;3.85;3.65;;;0.80;99.90;;;;;;5086212;27;20217;-74
2021/12/06 05:55:52;;;;;;;2.55;2.45;;;0.80;99.90;;;;;;5086733;28;20229;-73
2021/12/06 05:58:21;;;;;;;3.40;3.30;;;0.80;99.90;;;;;;5086716;28;20252;-73
2021/12/06 06:00:50;;;;;;;2.95;2.85;;;0.80;99.90;;;;;;5084512;28;20611;-73
2021/12/06 06:03:17;;;;;;;3.47;3.28;;;0.80;99.90;;;;;;5083842;28;20221;-73
2021/12/06 06:05:45;;;;;;;2.80;2.70;;;0.70;99.90;;;;;;5085874;28;20256;-73
2021/12/06 06:08:13;;;;;;;3.53;3.33;;;0.70;99.90;;;;;;5074280;28;20249;-73
2021/12/06 06:10:40;;;;;;;3.45;3.35;;;0.70;99.90;;;;;;5083852;28;20614;-74
2021/12/06 06:13:08;;;;;;;3.45;3.33;;;0.70;99.90;;;;;;5080817;28;20221;-74
2021/12/06 06:15:36;;;;;;;3.40;3.30;;;0.70;99.90;;;;;;5091481;28;20228;-73
2021/12/06 06:18:06;;;;;;;3.05;2.90;;;0.70;99.90;;;;;;5089519;28;20238;-74
2021/12/06 06:20:36;;;;;;;3.45;3.33;;;0.70;99.90;;;;;;5081538;28;20229;-72
2021/12/06 06:23:04;;;;;;;3.60;3.40;;;0.70;99.90;;;;;;5082587;28;20549;-74
2021/12/06 06:25:33;;;;;;;3.55;3.40;;;0.70;99.90;;;;;;5084981;28;20221;-73
2021/12/06 06:28:00;;;;;;;3.90;3.70;;;0.70;99.90;;;;;;5087372;28;20731;-74
2021/12/06 06:30:28;;;;;;;4.43;4.13;;;0.70;99.90;;;;;;5084073;28;20218;-74
2021/12/06 06:32:56;;;;;;;3.72;3.53;;;0.70;99.90;;;;;;5079369;28;20221;-75
2021/12/06 06:35:25;;;;;;;3.63;3.40;;;0.60;99.90;;;;;;5081970;28;20233;-75
2021/12/06 06:37:52;;;;;;;4.00;3.80;;;0.60;99.90;;;;;;5083141;28;20229;-74
2021/12/06 06:40:19;;;;;;;3.40;3.25;;;0.60;99.90;;;;;;5101883;28;20248;-75
2021/12/06 06:42:47;;;;;;;3.30;3.10;;;0.70;99.90;;;;;;5085076;28;20228;-74
2021/12/06 06:45:17;;;;;;;3.30;3.10;;;0.70;99.90;;;;;;5076658;28;20225;-74
2021/12/06 06:47:46;;;;;;;3.63;3.42;;;0.60;99.90;;;;;;5082376;28;20232;-73
2021/12/06 06:50:14;;;;;;;3.30;3.20;;;0.70;99.90;;;;;;5089539;22;20240;-67
2021/12/06 06:52:42;;;;;;;3.13;3.03;;;0.70;99.90;;;;;;5085391;28;20221;-67
2021/12/06 06:55:11;;;;;;;3.13;3.03;;;0.70;99.90;;;;;;5075929;28;20217;-67
2021/12/06 06:57:40;;;;;;;2.80;2.70;;;0.70;99.90;;;;;;5075080;28;20221;-67
2021/12/06 07:00:09;;;;;;;3.08;2.97;;;0.70;99.90;;;;;;5069934;28;20226;-68
2021/12/06 07:02:36;;;;;;;2.90;2.80;;;0.70;99.90;;;;;;5065026;28;20644;-67
2021/12/06 07:05:03;;;;;;;3.05;2.95;;;0.70;99.90;;;;;;5067085;28;20225;-67
2021/12/06 07:07:30;;;;;;;2.95;2.80;;;0.70;99.90;;;;;;5066895;28;20224;-67
2021/12/06 07:09:59;;;;;;;3.63;3.53;;;0.70;99.90;;;;;;5064657;28;20222;-67
2021/12/06 07:12:26;;;;;;;3.13;3.03;;;0.80;99.90;;;;;;5066514;28;20222;-67
2021/12/06 07:14:53;;;;;;;3.65;3.47;;;0.80;99.90;;;;;;5069546;28;20221;-67
2021/12/06 07:17:20;;;;;;;4.00;3.80;;;0.80;99.90;;;;;;5073639;28;20218;-67
2021/12/06 07:19:47;;;;;;;3.10;2.90;;;0.80;99.90;;;;;;5071016;28;20226;-67
2021/12/06 07:22:17;;;;;;;3.65;3.45;;;0.80;99.90;;;;;;5071137;28;20230;-67
2021/12/06 07:24:44;;;;;;;4.40;4.10;;;0.80;99.90;;;;;;5064882;28;20313;-67
2021/12/06 07:27:13;;;;;;;3.75;3.55;;;0.80;99.90;;;;;;5069679;28;20229;-67
2021/12/06 07:29:40;;;;;;;3.33;3.13;;;0.80;99.90;;;;;;5070263;28;23211;-67
2021/12/06 07:32:08;;;;;;;3.95;3.72;;;0.80;99.90;;;;;;5070128;28;20236;-67
2021/12/06 07:34:36;;;;;;;3.67;3.47;;;0.80;99.90;;;;;;5072341;28;20229;-67
2021/12/06 07:37:04;;;;;;;3.70;3.50;;;0.80;99.90;;;;;;5067855;28;20230;-67
2021/12/06 07:39:31;;;;;;;5.95;5.35;;;0.80;99.90;;;;;;5071885;28;20225;-67
2021/12/06 07:41:58;;;;;;;6.55;5.95;;;0.80;99.90;;;;;;5071213;28;20233;-67
2021/12/06 07:44:27;;;;;;;8.70;7.53;;;0.70;99.90;;;;;;5069328;28;20217;-67
2021/12/06 07:46:55;;;;;;;8.23;6.53;;;0.70;99.90;;;;;;5073467;28;20233;-67
2021/12/06 07:49:23;;;;;;;6.70;5.72;;;0.60;99.90;;;;;;5072283;28;20768;-67
2021/12/06 07:51:51;;;;;;;6.90;6.30;;;0.60;99.90;;;;;;5076253;28;20241;-70
2021/12/06 07:54:18;;;;;;;5.15;4.75;;;0.60;99.90;;;;;;5070324;28;20221;-67
2021/12/06 07:56:45;;;;;;;6.30;5.80;;;0.60;99.90;;;;;;5070209;28;20240;-67
2021/12/06 07:59:13;;;;;;;4.70;4.00;;;0.60;99.90;;;;;;5065202;28;20229;-67
2021/12/06 08:01:42;;;;;;;4.68;4.28;;;0.60;99.90;;;;;;5067160;28;20244;-66
2021/12/06 08:04:09;;;;;;;3.05;2.85;;;0.60;99.90;;;;;;5070111;28;20229;-66
2021/12/06 08:06:37;;;;;;;3.85;3.55;;;0.70;99.90;;;;;;5071886;28;20218;-67
2021/12/06 08:09:05;;;;;;;4.03;3.72;;;0.70;99.90;;;;;;5069768;28;20261;-67
2021/12/06 08:11:33;;;;;;;5.28;4.80;;;1.30;99.90;;;;;;5070189;28;20247;-66
2021/12/06 08:14:00;;;;;;;8.18;6.82;;;2.20;99.90;;;;;;5066958;28;20218;-67
2021/12/06 08:16:30;;;;;;;5.63;5.13;;;3.20;99.90;;;;;;5075204;28;20617;-67
2021/12/06 08:18:59;;;;;;;4.68;4.28;;;4.00;99.90;;;;;;5072929;28;20562;-68
2021/12/06 08:21:28;;;;;;;4.28;3.97;;;4.70;99.90;;;;;;5075367;28;20241;-67
2021/12/06 08:23:57;;;;;;;4.53;4.13;;;5.20;99.90;;;;;;5072703;28;20229;-67
2021/12/06 08:26:28;;;;;;;3.90;3.63;;;5.50;99.90;;;;;;5074957;28;20232;-67
2021/12/06 08:28:56;;;;;;;3.97;3.38;;;5.90;99.90;;;;;;5070210;28;20770;-68
2021/12/06 08:31:24;;;;;;;3.58;3.38;;;6.40;99.90;;;;;;5067305;28;20280;-68
2021/12/06 08:33:53;;;;;;;3.47;3.28;;;6.60;99.90;;;;;;5071072;28;20253;-68
2021/12/06 08:36:24;;;;;;;3.10;2.90;;;6.80;99.90;;;;;;5072982;28;20229;-68
2021/12/06 08:38:51;;;;;;;3.05;2.85;;;7.30;99.90;;;;;;5070217;28;20218;-68
2021/12/06 08:41:22;;;;;;;3.40;3.20;;;7.70;99.90;;;;;;5069953;28;20233;-67
2021/12/06 08:43:50;;;;;;;3.22;3.03;;;8.10;99.90;;;;;;5073740;28;20219;-69
2021/12/06 08:46:20;;;;;;;3.22;3.03;;;8.50;99.90;;;;;;5073343;28;20249;-68
2021/12/06 08:48:50;;;;;;;2.72;2.58;;;8.50;99.90;;;;;;5068925;28;20217;-69
2021/12/06 08:51:20;;;;;;;2.90;2.70;;;8.80;99.90;;;;;;5070900;28;20628;-68
2021/12/06 08:53:50;;;;;;;3.28;2.97;;;8.80;99.90;;;;;;5068794;28;20510;-68
2021/12/06 08:56:18;;;;;;;3.13;2.92;;;9.00;99.90;;;;;;5069553;28;20282;-68
2021/12/06 08:58:46;;;;;;;3.20;3.00;;;9.40;99.90;;;;;;5041465;28;20221;-68
2021/12/06 09:01:13;;;;;;;3.45;3.25;;;9.30;99.90;;;;;;5067047;28;20305;-68
2021/12/06 09:03:41;;;;;;;6.28;3.25;;;9.70;99.90;;;;;;5067578;28;20237;-68
2021/12/06 09:06:10;;;;;;;3.50;3.20;;;10.30;99.90;;;;;;5071403;28;20232;-68
2021/12/06 09:08:39;;;;;;;3.08;2.88;;;11.40;99.90;;;;;;5069480;28;20233;-70
2021/12/06 09:11:07;;;;;;;2.72;2.53;;;12.50;99.90;;;;;;5071892;28;20401;-70
2021/12/06 09:13:36;;;;;;;3.15;2.85;;;13.50;99.90;;;;;;5071495;28;20245;-70
2021/12/06 09:16:05;;;;;;;3.05;2.85;;;14.80;99.90;;;;;;5068094;28;20232;-71
2021/12/06 09:18:35;;;;;;;2.22;2.13;;;16.00;99.90;;;;;;5069373;28;20217;-72
2021/12/06 09:21:02;;;;;;;4.22;2.80;;;17.00;96.20;;;;;;5071597;28;20221;-71
2021/12/06 09:23:30;;;;;;;2.22;2.10;;;17.90;93.70;;;;;;5069224;28;20217;-72
2021/12/06 09:25:57;;;;;;;2.72;2.53;;;18.20;90.40;;;;;;5068896;28;20214;-71
2021/12/06 09:28:27;;;;;;;2.47;2.28;;;18.60;88.10;;;;;;5070830;28;20229;-70
2021/12/06 09:30:54;;;;;;;3.13;2.60;;;19.20;85.50;;;;;;5069627;28;20236;-74
2021/12/06 09:33:23;;;;;;;2.78;2.58;;;19.40;82.10;;;;;;5071308;28;20788;-73
2021/12/06 09:35:54;;;;;;;2.20;2.10;;;19.90;81.50;;;;;;5068647;28;20666;-75
2021/12/06 09:38:27;;;;;;;2.58;2.38;;;20.40;79.10;;;;;;5068554;28;20322;-69
2021/12/06 09:40:55;;;;;;;2.47;2.20;;;20.40;75.40;;;;;;5068321;28;20225;-78
2021/12/06 09:43:25;;;;;;;4.07;2.70;;;20.20;72.00;;;;;;5066331;28;20224;-71
2021/12/06 09:45:52;;;;;;;2.50;2.30;;;19.50;74.30;;;;;;5069974;28;20229;-73
2021/12/06 09:48:23;;;;;;;3.25;2.22;;;18.60;74.70;;;;;;5072631;28;20233;-69
2021/12/06 09:50:52;;;;;;;2.30;2.10;;;17.30;76.40;;;;;;5068321;28;20671;-70
2021/12/06 09:53:24;;;;;;;2.35;2.10;;;15.80;80.40;;;;;;5071197;28;20235;-69
2021/12/06 09:55:53;;;;;;;2.53;2.28;;;14.40;86.20;;;;;;5065204;28;20226;-76
2021/12/06 09:58:21;;;;;;;3.25;2.38;;;13.50;90.50;;;;;;5068569;28;20762;-76
2021/12/06 10:00:52;;;;;;;2.90;2.40;;;13.00;92.10;;;;;;5067514;28;20221;-75
2021/12/06 10:03:24;;;;;;;3.97;2.50;;;12.40;93.70;;;;;;5068321;28;20222;-81
2021/12/06 10:05:52;;;;;;;3.35;3.03;;;12.00;94.30;;;;;;5067921;28;20233;-80
2021/12/06 10:08:20;;;;;;;2.50;2.30;;;11.50;94.90;;;;;;5075235;28;20230;-78
2021/12/06 10:10:48;;;;;;;2.78;2.55;;;11.30;96.50;;;;;;5068270;28;20225;-74
2021/12/06 10:13:18;;;;;;;3.38;2.97;;;11.20;97.10;;;;;;5070079;28;20218;-71
2021/12/06 10:15:46;;;;;;;3.10;2.80;;;11.30;97.50;;;;;;5067342;28;20253;-75
2021/12/06 10:18:16;;;;;;;3.05;2.80;;;11.30;97.50;;;;;;5066680;28;20244;-71
2021/12/06 10:20:44;;;;;;;2.97;2.75;;;11.20;97.80;;;;;;5067736;28;20606;-71
2021/12/06 10:23:11;;;;;;;3.50;3.20;;;11.10;99.50;;;;;;5068845;28;20221;-69
2021/12/06 10:25:42;;;;;;;4.30;3.20;;;11.10;99.30;;;;;;5067830;28;20225;-75
2021/12/06 10:28:11;;;;;;;3.25;3.03;;;10.70;99.90;;;;;;5072669;28;20217;-75
2021/12/06 10:30:42;;;;;;;3.50;2.83;;;10.70;99.90;;;;;;5068602;28;20509;-72
2021/12/06 10:33:13;;;;;;;3.53;3.00;;;10.70;99.90;;;;;;5070646;28;20213;-70
2021/12/06 10:35:43;;;;;;;3.10;2.80;;;10.60;99.90;;;;;;5072874;28;20241;-71
2021/12/06 10:38:10;;;;;;;3.00;2.70;;;10.80;99.90;;;;;;5067716;28;20236;-69
2021/12/06 10:40:40;;;;;;;2.75;2.55;;;11.00;99.90;;;;;;5069524;28;20443;-71
2021/12/06 10:43:10;;;;;;;2.70;2.50;;;11.00;99.90;;;;;;5071687;28;20421;-69
2021/12/06 10:45:42;;;;;;;2.85;2.65;;;10.90;99.90;;;;;;5066080;28;20225;-70
2021/12/06 10:48:15;;;;;;;3.40;3.10;;;10.70;99.90;;;;;;5072990;28;20317;-69
2021/12/06 10:50:47;;;;;;;2.63;2.42;;;10.30;99.90;;;;;;5066276;28;20609;-69
2021/12/06 10:53:15;;;;;;;3.88;3.20;;;10.20;99.90;;;;;;5073204;28;20691;-70
2021/12/06 10:55:44;;;;;;;3.42;3.13;;;9.80;99.90;;;;;;5066717;28;20249;-69
2021/12/06 10:58:14;;;;;;;3.13;2.85;;;9.80;99.90;;;;;;5063187;28;20233;-68
2021/12/06 11:00:48;;;;;;;3.40;3.05;;;10.00;99.90;;;;;;5065700;28;20739;-69
2021/12/06 11:03:26;;;;;;;2.92;2.72;;;10.10;99.90;;;;;;5069186;28;20223;-68
2021/12/06 11:05:59;;;;;;;3.45;2.47;;;10.10;99.90;;;;;;5064934;28;20218;-68
2021/12/06 11:08:27;;;;;;;3.55;2.90;;;10.00;99.90;;;;;;5070879;28;20227;-70
2021/12/06 11:10:58;;;;;;;3.28;2.97;;;9.90;99.90;;;;;;5066781;28;20233;-70
2021/12/06 11:13:28;;;;;;;3.10;2.90;;;10.00;99.90;;;;;;5065877;28;20222;-72
2021/12/06 11:16:03;;;;;;;4.35;3.13;;;9.90;99.90;;;;;;5068958;28;20635;-69
2021/12/06 11:18:43;;;;;;;3.45;2.92;;;9.90;99.90;;;;;;5071115;28;20220;-74
2021/12/06 11:21:21;;;;;;;3.20;2.90;;;10.00;99.90;;;;;;5068263;28;20232;-70
2021/12/06 11:24:13;;;;;;;3.42;3.22;;;10.30;99.90;;;;;;5070917;28;20224;-72
2021/12/06 11:26:43;;;;;;;3.05;2.85;;;10.40;99.90;;;;;;5074682;28;20646;-74
2021/12/06 11:29:13;;;;;;;2.65;2.35;;;10.40;99.90;;;;;;5074160;28;20699;-70
2021/12/06 11:31:44;;;;;;;4.72;2.40;;;10.10;99.90;;;;;;5068800;28;20240;-69
2021/12/06 11:34:11;;;;;;;2.60;2.40;;;10.00;99.90;;;;;;5069934;28;20228;-69
2021/12/06 11:36:44;;;;;;;3.25;2.80;;;10.00;99.90;;;;;;5074639;28;20221;-70
2021/12/06 11:39:15;;;;;;;3.80;2.85;;;10.00;99.90;;;;;;5077121;28;20354;-69
2021/12/06 11:41:45;;;;;;;2.92;2.72;;;10.00;99.60;;;;;;5074299;28;20641;-70
2021/12/06 11:44:22;;;;;;;4.03;3.08;;;10.10;99.10;;;;;;5073606;28;20695;-71
2021/12/06 11:47:01;;;;;;;3.00;2.80;;;10.10;99.70;;;;;;5070009;28;20221;-72
2021/12/06 11:49:32;;;;;;;2.38;2.20;;;10.20;99.50;;;;;;5068183;28;20218;-68
2021/12/06 11:52:01;;;;;;;2.30;2.10;;;10.40;99.80;;;;;;5074396;28;20225;-70
2021/12/06 11:54:40;;;;;;;2.53;2.33;;;10.60;99.50;;;;;;5071570;28;20221;-72
2021/12/06 11:57:16;;;;;;;11.98;5.05;;;10.60;98.90;;;;;;5072286;28;20278;-73
2021/12/06 12:00:06;;;;;;;7.22;3.45;;;10.80;99.90;;;;;;5072608;28;20278;-71
2021/12/06 12:02:39;;;;;;;4.30;2.70;;;11.00;98.60;;;;;;5069533;28;20218;-69
2021/12/06 12:05:29;;;;;;;2.53;2.33;;;11.00;99.20;;;;;;5068409;28;20233;-69
2021/12/06 12:08:01;;;;;;;2.75;2.38;;;10.90;98.40;;;;;;5059195;28;20226;-79
2021/12/06 12:10:35;;;;;;;2.40;2.30;;;10.70;99.10;;;;;;5071828;28;20290;-78
2021/12/06 12:13:03;;;;;;;2.88;2.25;;;10.70;97.90;;;;;;5069953;28;20569;-72
2021/12/06 12:15:30;;;;;;;2.17;2.08;;;10.40;98.60;;;;;;5065605;28;20271;-73
2021/12/06 12:17:57;;;;;;;2.25;2.03;;;10.50;99.70;;;;;;5071570;28;20230;-70
2021/12/06 12:20:25;;;;;;;2.30;2.20;;;10.60;98.80;;;;;;5070888;28;20230;-73
2021/12/06 12:22:55;;;;;;;2.33;2.22;;;10.60;99.30;;;;;;5068094;28;20743;-71
2021/12/06 12:25:30;;;;;;;2.67;2.47;;;10.70;99.40;;;;;;5069644;28;20775;-77
2021/12/06 12:28:04;;;;;;;2.72;2.38;;;10.80;99.70;;;;;;5070467;28;20691;-75
2021/12/06 12:30:33;;;;;;;2.05;1.90;;;10.90;99.60;;;;;;5068719;28;20220;-71
2021/12/06 12:33:01;;;;;;;2.30;2.05;;;10.90;97.80;;;;;;5068291;28;20264;-73
2021/12/06 12:35:31;;;;;;;2.13;2.03;;;10.90;99.00;;;;;;5070760;28;20320;-72
2021/12/06 12:37:59;;;;;;;2.45;2.22;;;10.90;98.50;;;;;;5074027;28;20310;-69
2021/12/06 12:40:40;;;;;;;2.53;2.33;;;10.80;98.90;;;;;;5072821;28;20759;-69
2021/12/06 12:43:11;;;;;;;2.70;1.98;;;11.00;98.50;;;;;;5070363;28;20460;-68
2021/12/06 12:45:40;;;;;;;1.95;1.83;;;11.20;98.60;;;;;;5069380;28;20220;-68
2021/12/06 12:48:08;;;;;;;2.00;1.90;;;11.30;98.10;;;;;;5073861;28;20229;-69
2021/12/06 12:50:35;;;;;;;2.88;2.60;;;11.30;97.00;;;;;;5071375;28;20217;-69
2021/12/06 12:53:08;;;;;;;2.58;2.05;;;11.30;98.10;;;;;;5069683;28;20229;-68
2021/12/06 12:55:41;;;;;;;1.92;1.83;;;11.40;97.80;;;;;;5070461;28;20266;-68
2021/12/06 12:58:10;;;;;;;2.42;2.25;;;11.40;97.60;;;;;;5075272;28;20654;-67
2021/12/06 13:00:48;;;;;;;3.08;2.03;;;11.40;98.30;;;;;;5069837;28;20230;-68
2021/12/06 13:03:38;;;;;;;2.53;2.33;;;11.40;98.10;;;;;;5071303;28;20229;-68
2021/12/06 13:06:21;;;;;;;2.60;2.40;;;11.50;97.20;;;;;;5067987;28;20720;-68
2021/12/06 13:08:51;;;;;;;2.25;2.05;;;11.60;97.80;;;;;;5068724;28;20598;-68
2021/12/06 13:11:19;;;;;;;2.53;2.33;;;11.60;98.00;;;;;;5070672;28;20315;-68